Time;durP1;ratioP1;P1;durP2;ratioP2;P2;SDS_P1;SDS_P2;PMS_P1;PMS_P2;Temp;Humidity;BMP_temperature;BMP_pressure;BME280_temperature;BME280_humidity;BME280_pressure;Samples;Min_cycle;Max_cycle;Signal;HPM_P1;HPM_P2
2021/03/06 00:00:10;;;;;;;10.10;6.07;;;2.30;60.70;;;0.99;56.08;99699.56;5034453;28;20423;-77
2021/03/06 00:02:37;;;;;;;11.07;5.78;;;2.30;60.80;;;0.95;56.09;99708.63;5034444;28;20506;-77
2021/03/06 00:05:05;;;;;;;12.38;6.18;;;2.30;60.40;;;0.95;56.64;99703.44;5042913;28;20661;-77
2021/03/06 00:07:33;;;;;;;8.77;5.85;;;2.30;61.00;;;0.94;56.40;99700.94;5041754;28;20437;-78
2021/03/06 00:09:59;;;;;;;11.25;5.32;;;2.30;60.80;;;0.91;56.02;99709.03;5042712;28;20476;-77
2021/03/06 00:12:26;;;;;;;10.20;6.70;;;2.30;60.70;;;0.92;56.12;99710.69;5042061;28;20403;-78
2021/03/06 00:14:52;;;;;;;9.88;5.82;;;2.30;60.70;;;0.89;55.53;99703.97;5026323;28;20431;-77
2021/03/06 00:17:19;;;;;;;8.68;5.55;;;2.20;60.20;;;0.83;55.53;99709.69;5041659;28;20407;-78
2021/03/06 00:19:45;;;;;;;9.07;5.82;;;2.20;59.90;;;0.77;55.39;99707.59;5042025;28;20408;-77
2021/03/06 00:22:12;;;;;;;9.88;5.28;;;2.10;59.90;;;0.78;55.25;99714.47;5043711;28;20410;-77
2021/03/06 00:24:42;;;;;;;8.07;5.35;;;2.10;60.00;;;0.76;55.07;99708.56;5047287;28;20441;-75
2021/03/06 00:27:08;;;;;;;7.28;4.90;;;2.10;59.70;;;0.78;54.82;99711.88;5052438;28;20425;-75
2021/03/06 00:29:34;;;;;;;8.80;5.53;;;2.10;59.30;;;0.78;54.91;99711.88;5052673;28;20420;-76
2021/03/06 00:32:01;;;;;;;8.65;5.00;;;2.10;59.50;;;0.76;54.31;99703.34;5046100;28;20415;-77
2021/03/06 00:34:27;;;;;;;10.10;6.00;;;2.10;59.00;;;0.76;54.88;99698.97;5046366;28;20438;-77
2021/03/06 00:36:54;;;;;;;8.52;5.53;;;2.10;59.40;;;0.73;55.01;99701.84;5050757;28;20451;-76
2021/03/06 00:39:23;;;;;;;10.23;5.65;;;2.10;59.40;;;0.75;55.13;99702.53;5050449;28;20480;-76
2021/03/06 00:41:50;;;;;;;7.85;5.65;;;2.10;59.60;;;0.76;54.93;99706.78;5047032;28;20820;-77
2021/03/06 00:44:16;;;;;;;10.27;5.47;;;2.10;59.50;;;0.77;54.87;99700.63;5044848;28;20415;-78
2021/03/06 00:46:45;;;;;;;7.40;5.00;;;2.10;59.20;;;0.77;54.22;99705.00;5042860;28;20569;-76
2021/03/06 00:49:17;;;;;;;8.63;5.60;;;2.10;59.10;;;0.76;54.61;99703.34;5043986;28;20411;-76
2021/03/06 00:51:43;;;;;;;8.45;4.85;;;2.10;59.30;;;0.76;54.22;99705.94;5043153;28;20423;-76
2021/03/06 00:54:10;;;;;;;8.35;5.15;;;2.10;59.50;;;0.75;54.24;99709.53;5042334;28;20422;-76
2021/03/06 00:56:37;;;;;;;8.67;5.30;;;2.00;58.80;;;0.74;54.09;99700.06;5042205;28;20487;-78
2021/03/06 00:59:04;;;;;;;9.10;5.57;;;2.10;58.90;;;0.75;54.33;99702.53;5043247;28;20697;-77
2021/03/06 01:01:30;;;;;;;11.20;5.60;;;2.10;58.90;;;0.67;53.54;99697.16;5042562;28;20705;-77
2021/03/06 01:03:57;;;;;;;9.48;5.47;;;2.00;58.10;;;0.68;54.31;99704.00;5042293;28;20488;-77
2021/03/06 01:06:25;;;;;;;9.43;5.15;;;2.00;58.70;;;0.66;54.63;99697.28;5042679;28;20426;-77
2021/03/06 01:08:52;;;;;;;8.18;5.30;;;2.00;59.30;;;0.63;54.78;99697.53;5042259;28;20477;-78
2021/03/06 01:11:18;;;;;;;8.30;5.43;;;2.00;59.30;;;0.58;54.52;99695.34;5023287;28;20883;-78
2021/03/06 01:13:45;;;;;;;8.95;4.97;;;1.90;58.90;;;0.53;54.61;99691.44;5041062;28;20492;-77
2021/03/06 01:16:12;;;;;;;7.73;5.13;;;1.90;59.10;;;0.50;54.45;99692.56;5041686;28;20426;-77
2021/03/06 01:18:38;;;;;;;9.98;5.00;;;1.90;59.10;;;0.42;54.57;99689.78;5042448;28;20505;-77
2021/03/06 01:21:05;;;;;;;8.20;5.05;;;1.80;59.10;;;0.43;54.42;99693.22;5043705;28;20663;-77
2021/03/06 01:23:31;;;;;;;8.73;5.57;;;1.80;59.20;;;0.42;54.72;99687.19;5045100;28;20406;-77
2021/03/06 01:25:58;;;;;;;8.88;5.63;;;1.80;59.30;;;0.39;54.33;99690.03;5046758;28;20415;-75
2021/03/06 01:28:24;;;;;;;9.88;5.93;;;1.70;59.10;;;0.38;54.80;99684.00;5052273;28;20477;-75
2021/03/06 01:30:50;;;;;;;8.68;5.30;;;1.70;59.40;;;0.39;54.86;99685.66;5052189;28;20442;-75
2021/03/06 01:33:18;;;;;;;10.23;5.65;;;1.70;59.40;;;0.35;54.86;99688.66;5049064;28;20588;-76
2021/03/06 01:35:44;;;;;;;9.50;5.78;;;1.70;59.40;;;0.31;54.98;99693.28;5048890;28;20429;-77
2021/03/06 01:38:10;;;;;;;7.45;5.30;;;1.70;59.40;;;0.28;55.25;99690.13;5025176;28;20415;-77
2021/03/06 01:40:37;;;;;;;9.02;5.63;;;1.70;59.80;;;0.26;55.69;99690.25;5025681;28;20423;-77
2021/03/06 01:43:08;;;;;;;7.85;5.63;;;1.60;60.10;;;0.26;55.94;99687.63;5042877;28;20865;-77
2021/03/06 01:45:35;;;;;;;8.48;5.53;;;1.60;60.30;;;0.21;56.35;99689.00;5043034;28;20421;-77
2021/03/06 01:48:02;;;;;;;8.98;5.50;;;1.60;60.50;;;0.20;56.23;99687.34;5043166;28;20410;-77
2021/03/06 01:50:32;;;;;;;8.40;6.05;;;1.50;61.40;;;0.16;56.67;99686.75;5043635;28;20519;-77
2021/03/06 01:53:02;;;;;;;11.02;5.40;;;1.50;61.00;;;0.17;56.48;99696.22;5046407;28;20422;-77
2021/03/06 01:55:33;;;;;;;9.25;5.88;;;1.50;61.60;;;0.16;56.58;99693.75;5049204;28;20419;-77
2021/03/06 01:58:00;;;;;;;9.38;5.90;;;1.50;61.10;;;0.13;56.93;99691.41;5043844;28;20411;-77
2021/03/06 02:00:27;;;;;;;9.52;5.80;;;1.50;61.20;;;0.11;56.27;99677.69;5040235;28;20414;-77
2021/03/06 02:02:54;;;;;;;9.68;6.25;;;1.50;60.90;;;0.08;56.66;99685.72;5046419;28;20446;-77
2021/03/06 02:05:20;;;;;;;7.80;5.45;;;1.40;61.10;;;0.09;56.37;99677.81;5044789;28;20533;-77
2021/03/06 02:07:47;;;;;;;9.20;5.80;;;1.40;60.60;;;0.08;56.93;99677.94;5042897;28;20414;-77
2021/03/06 02:10:17;;;;;;;8.93;5.90;;;1.40;61.00;;;0.09;56.56;99680.41;5042203;28;20419;-77
2021/03/06 02:12:54;;;;;;;7.53;5.28;;;1.40;61.00;;;0.10;56.03;99670.81;5043610;28;20409;-77
2021/03/06 02:15:33;;;;;;;9.23;5.60;;;1.50;60.80;;;0.10;55.94;99670.81;5043095;28;20422;-77
2021/03/06 02:18:05;;;;;;;8.55;6.07;;;1.40;60.50;;;0.05;56.36;99675.59;5042426;28;20403;-77
2021/03/06 02:20:59;;;;;;;9.52;5.90;;;1.40;60.60;;;0.06;56.16;99662.47;5025619;28;20561;-77
2021/03/06 02:24:08;;;;;;;9.27;5.75;;;1.40;60.80;;;0.05;56.25;99670.38;5046872;28;20521;-77
2021/03/06 02:27:13;;;;;;;9.40;5.83;;;1.40;60.60;;;0.01;56.23;99664.59;5029514;28;20437;-77
2021/03/06 02:29:43;;;;;;;10.15;5.70;;;1.40;60.80;;;-0.02;56.20;99663.09;5034677;28;20419;-77
2021/03/06 02:32:20;;;;;;;9.82;6.00;;;1.40;60.80;;;-0.02;56.47;99665.69;5041236;28;20469;-77
2021/03/06 02:35:02;;;;;;;8.52;5.45;;;1.30;60.90;;;-0.01;56.82;99661.31;5023606;28;20419;-77
2021/03/06 02:37:30;;;;;;;9.02;6.47;;;1.40;61.40;;;-0.05;57.29;99665.13;5041395;28;20553;-77
2021/03/06 02:39:59;;;;;;;8.60;5.75;;;1.30;62.40;;;-0.10;56.89;99669.88;5043772;28;20532;-76
2021/03/06 02:42:28;;;;;;;9.93;5.95;;;1.30;61.40;;;-0.17;56.99;99661.78;5034322;28;20435;-76
2021/03/06 02:44:58;;;;;;;10.45;6.03;;;1.20;61.70;;;-0.20;57.40;99664.59;5048977;28;20403;-77
2021/03/06 02:47:26;;;;;;;10.73;5.53;;;1.20;62.00;;;-0.25;57.46;99671.97;5040228;28;20502;-77
2021/03/06 02:49:54;;;;;;;9.80;5.90;;;1.10;62.20;;;-0.27;57.94;99663.47;5043271;28;20494;-77
2021/03/06 02:52:21;;;;;;;11.73;6.35;;;1.10;62.40;;;-0.28;57.88;99661.81;5051983;28;20498;-77
2021/03/06 02:54:49;;;;;;;9.90;6.05;;;1.10;62.40;;;-0.24;57.78;99665.84;5034376;28;20449;-77
2021/03/06 02:57:37;;;;;;;9.68;5.93;;;1.10;62.30;;;-0.22;57.35;99665.69;5023909;28;20484;-77
2021/03/06 03:00:22;;;;;;;10.35;5.82;;;1.10;62.10;;;-0.26;57.26;99662.53;5024075;28;20423;-77
2021/03/06 03:03:01;;;;;;;10.32;6.28;;;1.10;61.90;;;-0.30;57.58;99660.31;5029604;28;20418;-77
2021/03/06 03:05:36;;;;;;;8.07;6.00;;;1.10;62.10;;;-0.24;57.65;99663.22;5055421;28;20518;-77
2021/03/06 03:08:07;;;;;;;9.17;5.70;;;1.10;62.20;;;-0.23;57.29;99656.25;5055314;28;20399;-76
2021/03/06 03:10:38;;;;;;;7.93;5.47;;;1.20;62.10;;;-0.02;56.26;99659.66;5039097;28;20453;-76
2021/03/06 03:13:15;;;;;;;8.25;5.72;;;1.20;61.60;;;-0.07;57.22;99664.41;5049733;28;20415;-77
2021/03/06 03:15:47;;;;;;;9.48;5.65;;;1.30;61.60;;;-0.06;56.76;99666.06;5048223;28;20410;-77
2021/03/06 03:18:20;;;;;;;9.52;5.45;;;1.30;61.60;;;-0.19;57.00;99663.66;5050674;28;20414;-77
2021/03/06 03:20:53;;;;;;;9.48;5.90;;;1.20;61.20;;;-0.14;56.77;99658.91;5031961;28;20445;-77
2021/03/06 03:23:24;;;;;;;8.68;5.75;;;1.20;61.50;;;-0.12;56.18;99658.78;5032560;28;20493;-77
2021/03/06 03:25:51;;;;;;;9.85;5.05;;;1.20;61.00;;;0.06;56.02;99656.41;5049647;28;20862;-77
2021/03/06 03:28:20;;;;;;;7.85;5.55;;;1.30;60.90;;;-0.19;56.43;99650.66;5032745;28;20442;-77
2021/03/06 03:30:48;;;;;;;8.88;5.93;;;1.20;60.80;;;-0.32;56.54;99664.81;5037528;28;20444;-77
2021/03/06 03:33:16;;;;;;;8.23;5.35;;;1.10;60.80;;;-0.45;56.64;99650.19;5057010;28;20505;-76
2021/03/06 03:35:45;;;;;;;7.07;5.07;;;1.00;61.20;;;-0.43;57.22;99657.88;5057880;28;20484;-76
2021/03/06 03:38:12;;;;;;;9.30;5.90;;;0.90;61.80;;;-0.55;57.35;99657.09;5056015;28;20490;-76
2021/03/06 03:40:39;;;;;;;8.77;5.28;;;0.90;61.60;;;-0.58;56.87;99653.91;5038967;28;20453;-76
2021/03/06 03:43:06;;;;;;;8.23;5.30;;;0.80;61.60;;;-0.55;56.83;99659.72;5058308;28;20407;-77
2021/03/06 03:45:33;;;;;;;7.95;5.22;;;0.80;61.80;;;-0.62;57.28;99657.72;5058959;28;20391;-77
2021/03/06 03:48:01;;;;;;;7.47;5.15;;;0.80;62.20;;;-0.60;56.86;99663.63;5040433;28;20422;-77
2021/03/06 03:50:28;;;;;;;8.48;5.60;;;0.80;61.60;;;-0.63;57.29;99659.50;5039783;28;20423;-77
2021/03/06 03:52:54;;;;;;;11.45;5.35;;;0.80;61.80;;;-0.59;57.33;99668.69;5046944;28;20441;-77
2021/03/06 03:55:22;;;;;;;9.52;5.18;;;0.80;61.90;;;-0.46;56.85;99665.94;5027403;28;20419;-77
2021/03/06 03:57:49;;;;;;;7.50;5.15;;;0.90;61.60;;;-0.40;57.23;99665.44;5027126;28;20426;-76
2021/03/06 04:00:19;;;;;;;8.98;5.93;;;1.00;62.10;;;-0.53;56.56;99665.63;5044331;28;20514;-76
2021/03/06 04:02:46;;;;;;;6.85;5.22;;;0.90;61.10;;;-0.57;56.73;99669.41;5044525;28;20419;-76
2021/03/06 04:05:15;;;;;;;8.65;5.95;;;0.80;61.20;;;-0.55;57.09;99674.50;5043903;28;20443;-77
2021/03/06 04:07:46;;;;;;;8.02;5.68;;;0.90;61.60;;;-0.60;57.03;99672.25;5045558;28;20425;-76
2021/03/06 04:10:16;;;;;;;7.75;5.47;;;0.80;61.30;;;-0.63;56.95;99680.31;5044934;28;20696;-76
2021/03/06 04:12:43;;;;;;;7.75;5.30;;;0.80;61.40;;;-0.68;56.59;99684.22;5044577;28;20402;-77
2021/03/06 04:15:12;;;;;;;7.22;5.45;;;0.70;61.10;;;-0.74;56.96;99679.50;5044229;28;20434;-76
2021/03/06 04:17:39;;;;;;;9.60;5.40;;;0.60;61.40;;;-0.77;56.96;99683.19;5044190;28;20415;-77
2021/03/06 04:20:08;;;;;;;9.40;5.20;;;0.70;61.70;;;-0.78;56.89;99684.13;5044169;28;20429;-77
2021/03/06 04:22:36;;;;;;;10.15;5.85;;;0.60;61.30;;;-0.82;56.86;99691.34;5044238;28;20423;-77
2021/03/06 04:25:03;;;;;;;9.20;5.60;;;0.60;61.50;;;-0.87;56.79;99690.91;5044418;28;20418;-78
2021/03/06 04:27:29;;;;;;;8.35;5.60;;;0.50;61.40;;;-0.83;57.02;99694.88;5046143;28;20426;-77
2021/03/06 04:29:56;;;;;;;7.65;5.20;;;0.50;61.80;;;-0.76;57.13;99699.63;5050829;28;20437;-77
2021/03/06 04:32:22;;;;;;;8.43;5.20;;;0.60;61.80;;;-0.76;56.86;99697.03;5032847;28;20523;-77
2021/03/06 04:34:50;;;;;;;7.70;5.50;;;0.60;61.40;;;-0.85;57.02;99691.59;5025994;28;20430;-77
2021/03/06 04:37:16;;;;;;;7.03;4.95;;;0.50;61.20;;;-0.90;57.12;99693.72;5025022;28;20430;-77
2021/03/06 04:39:43;;;;;;;9.07;5.70;;;0.50;61.40;;;-0.91;57.09;99686.91;5043907;28;20419;-77
2021/03/06 04:42:10;;;;;;;9.40;5.70;;;0.50;61.50;;;-0.91;57.32;99692.09;5026692;28;20427;-76
2021/03/06 04:44:36;;;;;;;10.90;5.13;;;0.50;61.70;;;-0.94;57.28;99684.53;5043527;28;20411;-76
2021/03/06 04:47:04;;;;;;;6.93;5.10;;;0.50;61.70;;;-0.96;57.08;99694.22;5044569;28;20411;-76
2021/03/06 04:49:30;;;;;;;8.80;5.15;;;0.40;61.80;;;-1.03;56.83;99687.84;5042823;28;20433;-76
2021/03/06 04:51:56;;;;;;;10.03;5.10;;;0.40;61.00;;;-1.03;57.18;99697.41;5026152;28;20454;-76
2021/03/06 04:54:23;;;;;;;9.38;5.78;;;0.40;61.30;;;-1.06;56.81;99698.50;5043433;28;20897;-76
2021/03/06 04:56:50;;;;;;;10.55;5.28;;;0.40;61.10;;;-1.04;57.33;99696.59;5043324;28;20704;-77
2021/03/06 04:59:17;;;;;;;9.02;5.07;;;0.40;61.60;;;-1.05;56.36;99700.13;5043923;28;20410;-77
2021/03/06 05:01:43;;;;;;;8.40;5.30;;;0.40;60.90;;;-1.05;56.41;99701.94;5026132;28;20445;-77
2021/03/06 05:04:10;;;;;;;10.10;5.75;;;0.30;60.80;;;-1.08;56.67;99691.78;5046117;28;20415;-77
2021/03/06 05:06:36;;;;;;;10.75;5.40;;;0.30;61.20;;;-1.04;56.31;99695.75;5049866;28;20434;-77
2021/03/06 05:09:03;;;;;;;9.52;4.82;;;0.40;61.10;;;-1.07;56.48;99691.66;5050905;28;20446;-78
2021/03/06 05:11:31;;;;;;;9.17;4.93;;;0.40;61.00;;;-0.96;56.06;99694.22;5047905;28;20416;-76
2021/03/06 05:14:02;;;;;;;6.30;5.20;;;0.40;60.90;;;-1.00;56.27;99695.41;5046164;28;20449;-76
2021/03/06 05:16:28;;;;;;;7.22;5.07;;;0.40;60.50;;;-1.01;56.05;99691.16;5047156;28;20411;-77
2021/03/06 05:18:55;;;;;;;8.05;5.53;;;0.40;60.60;;;-1.03;56.54;99698.25;5025374;28;20768;-77
2021/03/06 05:21:21;;;;;;;11.98;6.07;;;0.40;60.80;;;-0.99;55.88;99701.44;5044111;28;20751;-77
2021/03/06 05:23:47;;;;;;;7.60;5.33;;;0.40;60.60;;;-1.01;55.59;99703.34;5042871;28;20437;-77
2021/03/06 05:26:13;;;;;;;9.20;5.40;;;0.40;60.30;;;-1.10;56.03;99696.25;5042304;28;20407;-77
2021/03/06 05:28:40;;;;;;;8.40;5.28;;;0.30;60.10;;;-1.13;56.26;99693.91;5041792;28;20418;-77
2021/03/06 05:31:07;;;;;;;10.52;5.43;;;0.30;60.50;;;-1.17;56.26;99701.09;5024879;28;20812;-77
2021/03/06 05:33:33;;;;;;;9.40;5.60;;;0.30;60.60;;;-1.23;56.16;99696.41;5047343;28;20529;-76
2021/03/06 05:36:00;;;;;;;7.93;5.17;;;0.20;60.70;;;-1.22;56.71;99700.66;5050947;28;20775;-76
2021/03/06 05:38:26;;;;;;;11.20;5.60;;;0.20;60.70;;;-1.25;56.67;99700.88;5033180;28;20447;-75
2021/03/06 05:40:52;;;;;;;8.63;5.10;;;0.20;61.00;;;-1.22;57.05;99701.47;5030375;28;20419;-77
2021/03/06 05:43:18;;;;;;;9.38;4.88;;;0.20;61.30;;;-1.19;56.61;99703.81;5045259;28;20418;-77
2021/03/06 05:45:46;;;;;;;7.28;5.40;;;0.20;61.10;;;-1.17;56.40;99701.94;5048351;28;20403;-76
2021/03/06 05:48:15;;;;;;;8.05;5.55;;;0.30;61.10;;;-1.11;57.03;99703.22;5049455;28;20427;-76
2021/03/06 05:50:42;;;;;;;7.63;5.05;;;0.30;61.30;;;-1.15;56.75;99691.44;5050692;28;20479;-77
2021/03/06 05:53:13;;;;;;;8.63;6.07;;;0.30;61.20;;;-1.14;57.03;99694.84;5047535;28;20414;-77
2021/03/06 05:55:43;;;;;;;9.80;5.70;;;0.30;61.30;;;-1.11;56.65;99699.78;5024021;28;20415;-77
2021/03/06 05:58:10;;;;;;;7.37;5.47;;;0.30;61.30;;;-1.18;55.98;99697.69;5023031;28;20514;-77
2021/03/06 06:00:41;;;;;;;10.10;5.43;;;0.30;60.60;;;-1.10;56.07;99691.88;5025292;28;20486;-77
2021/03/06 06:03:09;;;;;;;9.57;5.13;;;0.20;60.60;;;-1.17;56.13;99694.13;5042517;28;20414;-77
2021/03/06 06:05:36;;;;;;;10.90;5.72;;;0.30;60.80;;;-1.24;56.47;99692.13;5042746;28;20423;-77
2021/03/06 06:08:04;;;;;;;8.93;5.57;;;0.20;60.90;;;-1.26;56.62;99689.66;5042290;28;20531;-77
2021/03/06 06:10:32;;;;;;;9.67;5.80;;;0.10;61.20;;;-1.28;56.90;99695.94;5042298;28;20413;-77
2021/03/06 06:12:59;;;;;;;9.40;5.97;;;0.10;61.20;;;-1.31;57.12;99691.78;5024351;28;20717;-77
2021/03/06 06:15:25;;;;;;;8.45;5.43;;;0.10;61.30;;;-1.30;56.86;99698.66;5042342;28;20427;-77
2021/03/06 06:17:52;;;;;;;9.75;5.47;;;0.10;61.60;;;-1.31;56.93;99699.59;5024805;28;20427;-77
2021/03/06 06:20:21;;;;;;;13.15;5.88;;;0.10;61.60;;;-1.30;57.58;99701.25;5045199;28;20403;-77
2021/03/06 06:23:03;;;;;;;8.50;5.80;;;0.10;61.90;;;-1.27;57.29;99702.75;5029109;28;20530;-76
2021/03/06 06:25:32;;;;;;;9.10;5.63;;;0.10;62.00;;;-1.32;57.06;99708.31;5028716;28;20415;-76
2021/03/06 06:28:03;;;;;;;12.25;6.38;;;0.10;61.40;;;-1.34;57.15;99712.81;5046142;28;20419;-77
2021/03/06 06:30:30;;;;;;;10.35;5.85;;;0.10;61.40;;;-1.35;57.02;99705.94;5046610;28;20407;-77
2021/03/06 06:32:56;;;;;;;9.10;5.30;;;0.10;61.30;;;-1.37;56.87;99705.25;5046357;28;20488;-77
2021/03/06 06:35:23;;;;;;;9.18;5.43;;;0.10;61.20;;;-1.36;57.25;99706.91;5045201;28;20423;-77
2021/03/06 06:37:58;;;;;;;11.52;6.43;;;0.00;61.60;;;-1.33;56.93;99706.66;5045494;28;20407;-76
2021/03/06 06:40:28;;;;;;;10.02;5.80;;;0.10;61.70;;;-1.25;57.32;99719.06;5046097;28;20813;-76
2021/03/06 06:42:54;;;;;;;17.55;9.75;;;0.10;61.70;;;-1.23;56.54;99711.97;5040506;28;20415;-76
2021/03/06 06:45:21;;;;;;;10.05;6.72;;;0.20;60.90;;;-1.24;56.47;99721.53;5040704;28;20884;-76
2021/03/06 06:47:50;;;;;;;10.60;6.35;;;0.20;60.80;;;-1.20;56.19;99719.53;5042705;28;20437;-77
2021/03/06 06:50:30;;;;;;;9.15;6.10;;;0.20;60.80;;;-1.01;55.49;99722.34;5047718;28;20399;-79
2021/03/06 06:52:57;;;;;;;7.27;5.40;;;0.30;60.40;;;-0.87;55.52;99718.66;5051410;28;20419;-80
2021/03/06 06:55:35;;;;;;;10.38;6.63;;;0.50;60.00;;;-0.73;55.00;99720.16;5049531;28;20498;-79
2021/03/06 06:58:02;;;;;;;12.10;5.80;;;0.60;60.40;;;-0.65;54.57;99718.59;5050713;28;20418;-80
2021/03/06 07:00:31;;;;;;;12.30;5.03;;;0.70;59.40;;;-0.53;54.55;99720.25;5035205;28;20415;-79
2021/03/06 07:03:00;;;;;;;8.80;5.20;;;0.80;59.30;;;-0.57;53.35;99718.81;5055104;28;20423;-79
2021/03/06 07:05:29;;;;;;;8.27;5.63;;;0.80;58.30;;;-0.55;54.04;99718.72;5054062;28;20659;-79
2021/03/06 07:07:57;;;;;;;8.32;5.22;;;0.80;58.60;;;-0.55;54.09;99716.94;5070059;28;20413;-80
2021/03/06 07:10:31;;;;;;;10.70;5.47;;;0.80;58.50;;;-0.59;54.17;99727.69;5070397;28;20438;-79
2021/03/06 07:13:02;;;;;;;8.23;5.72;;;0.80;58.70;;;-0.60;54.01;99726.84;5080291;28;20413;-78
2021/03/06 07:15:30;;;;;;;14.55;5.75;;;0.80;58.60;;;-0.52;54.17;99721.88;5080471;28;20432;-79
2021/03/06 07:17:58;;;;;;;9.30;4.93;;;0.80;58.90;;;-0.40;54.02;99733.09;5081211;28;20412;-81
2021/03/06 07:20:35;;;;;;;7.07;4.90;;;0.90;58.90;;;-0.35;53.78;99735.31;5081852;28;20437;-80
2021/03/06 07:23:19;;;;;;;10.05;5.47;;;1.00;58.40;;;-0.21;53.70;99740.22;5079666;28;20485;-80
2021/03/06 07:25:48;;;;;;;10.07;5.53;;;1.10;58.40;;;-0.05;53.00;99740.59;5079740;28;20417;-81
2021/03/06 07:28:14;;;;;;;11.13;5.28;;;1.20;58.00;;;-0.09;52.49;99747.03;5080819;28;20415;-80
2021/03/06 07:30:41;;;;;;;13.18;5.25;;;1.30;57.50;;;-0.01;52.78;99747.22;5079321;28;20492;-80
2021/03/06 07:33:11;;;;;;;10.52;6.20;;;1.30;57.70;;;-0.01;52.91;99755.03;5197783;22;20418;-79
2021/03/06 07:35:41;;;;;;;6.68;5.43;;;1.30;57.70;;;-0.08;52.71;99746.09;5133681;28;20407;-79
2021/03/06 07:38:10;;;;;;;9.95;5.95;;;1.30;57.10;;;-0.04;52.82;99750.06;5133684;28;20486;-80
2021/03/06 07:40:41;;;;;;;9.95;5.65;;;1.30;57.60;;;0.01;52.32;99758.31;5131189;28;20446;-78
2021/03/06 07:43:14;;;;;;;6.97;5.28;;;1.30;57.30;;;0.03;52.82;99764.25;5137090;28;20437;-79
2021/03/06 07:45:43;;;;;;;8.60;5.22;;;1.40;57.40;;;0.11;52.08;99756.63;5128982;28;20465;-79
2021/03/06 07:48:13;;;;;;;10.37;5.17;;;1.40;57.30;;;0.18;52.04;99762.16;5126716;28;20481;-80
2021/03/06 07:50:41;;;;;;;10.57;5.10;;;1.50;57.00;;;0.21;51.61;99762.75;5125120;28;20408;-80
2021/03/06 07:53:09;;;;;;;8.32;5.53;;;1.50;56.70;;;0.24;51.49;99761.63;5124980;28;20439;-80
2021/03/06 07:55:38;;;;;;;7.32;5.38;;;1.50;56.50;;;0.33;52.18;99758.28;5124434;28;20408;-79
2021/03/06 07:58:08;;;;;;;9.00;5.68;;;1.60;56.80;;;0.40;51.38;99764.63;5121624;28;20473;-80
2021/03/06 08:01:02;;;;;;;12.57;5.13;;;1.70;56.50;;;0.45;51.14;99762.47;5125508;28;20670;-80
2021/03/06 08:03:36;;;;;;;8.00;4.97;;;1.70;56.30;;;0.52;51.16;99768.00;5103619;28;20432;-80
2021/03/06 08:06:22;;;;;;;9.82;5.35;;;1.80;56.30;;;0.61;51.14;99767.19;5123465;28;20924;-81
2021/03/06 08:09:09;;;;;;;12.27;5.90;;;1.90;56.20;;;0.64;50.83;99759.97;5124469;28;20412;-80
2021/03/06 08:11:47;;;;;;;14.23;8.17;;;2.00;56.00;;;0.65;50.69;99766.84;5124329;28;20427;-81
2021/03/06 08:14:37;;;;;;;9.35;5.45;;;1.90;55.90;;;0.70;50.89;99761.22;5129599;28;20416;-79
2021/03/06 08:17:03;;;;;;;8.27;5.50;;;2.00;55.90;;;0.68;50.78;99758.75;5130882;28;20414;-79
2021/03/06 08:19:33;;;;;;;9.93;5.35;;;2.00;55.60;;;0.71;50.90;99762.88;5125870;28;20415;-81
2021/03/06 08:22:15;;;;;;;8.18;5.40;;;2.00;55.70;;;0.77;50.81;99763.19;5130514;28;20396;-80
2021/03/06 08:24:43;;;;;;;9.98;5.53;;;2.10;55.70;;;0.86;50.72;99771.16;5132803;28;20829;-80
2021/03/06 08:27:24;;;;;;;9.45;5.78;;;2.20;55.60;;;0.92;50.29;99773.25;5110709;28;20673;-80
2021/03/06 08:29:53;;;;;;;10.93;5.63;;;2.20;55.40;;;1.01;50.63;99775.06;5123180;28;20427;-81
2021/03/06 08:32:36;;;;;;;9.93;5.35;;;2.30;55.40;;;1.06;50.15;99773.72;5127137;28;20499;-81
2021/03/06 08:35:24;;;;;;;9.53;5.80;;;2.30;55.10;;;1.13;50.09;99772.22;5136656;28;20489;-79
2021/03/06 08:37:51;;;;;;;13.68;6.85;;;2.40;55.10;;;1.22;50.07;99775.81;5131167;28;20420;-81
2021/03/06 08:40:20;;;;;;;10.75;6.63;;;2.40;55.20;;;1.18;50.01;99779.69;5134486;28;20404;-80
2021/03/06 08:42:51;;;;;;;9.98;6.75;;;2.50;54.80;;;1.25;50.27;99775.56;5124647;28;20725;-80
2021/03/06 08:45:23;;;;;;;7.70;5.85;;;2.50;55.10;;;1.33;49.92;99773.13;5124541;28;20404;-79
2021/03/06 08:47:55;;;;;;;11.60;6.68;;;2.60;54.90;;;1.40;49.42;99776.84;5128036;28;20405;-81
2021/03/06 08:50:23;;;;;;;12.27;6.95;;;2.60;54.60;;;1.48;49.28;99774.41;5127343;28;20439;-80
2021/03/06 08:52:59;;;;;;;10.50;5.50;;;2.70;54.40;;;1.57;49.33;99769.34;5127323;28;20415;-82
2021/03/06 08:55:29;;;;;;;10.18;5.70;;;2.80;54.30;;;1.69;49.38;99776.06;5126330;28;20420;-81
2021/03/06 08:58:00;;;;;;;7.47;5.60;;;2.90;54.40;;;1.77;48.85;99782.25;5123347;28;20502;-81
2021/03/06 09:00:31;;;;;;;12.77;5.80;;;3.00;54.00;;;1.89;48.93;99783.78;5124987;28;20404;-81
2021/03/06 09:03:11;;;;;;;9.55;5.60;;;3.10;54.00;;;1.99;48.65;99785.56;5125374;28;20496;-80
2021/03/06 09:05:37;;;;;;;11.85;6.90;;;3.20;53.80;;;1.98;48.12;99776.06;5125352;28;20408;-80
2021/03/06 09:08:05;;;;;;;8.50;5.70;;;3.20;53.10;;;2.02;48.14;99780.91;5127943;28;20412;-80
2021/03/06 09:10:38;;;;;;;13.27;5.80;;;3.30;53.20;;;2.04;47.94;99772.91;5127570;28;20451;-81
2021/03/06 09:13:11;;;;;;;10.25;5.90;;;3.30;53.30;;;2.07;48.00;99772.66;5133037;28;20419;-81
2021/03/06 09:15:48;;;;;;;9.93;5.82;;;3.30;53.00;;;2.09;47.71;99774.16;5134419;28;20383;-82
2021/03/06 09:18:21;;;;;;;10.60;5.53;;;3.30;52.80;;;2.24;47.76;99767.56;5134160;28;20430;-81
2021/03/06 09:20:54;;;;;;;17.63;11.98;;;3.40;53.10;;;2.32;47.24;99767.69;5127607;28;20400;-80
2021/03/06 09:23:34;;;;;;;10.85;5.85;;;3.50;52.60;;;2.45;47.67;99766.53;5122775;28;20404;-82
2021/03/06 09:26:12;;;;;;;9.75;5.47;;;3.60;52.70;;;2.58;47.38;99764.44;5121025;28;20408;-79
2021/03/06 09:28:40;;;;;;;9.32;4.95;;;3.70;52.50;;;2.69;46.86;99767.72;5122251;28;20405;-79
2021/03/06 09:31:16;;;;;;;9.20;5.70;;;3.80;52.10;;;2.84;46.09;99760.25;5120722;28;20452;-80
2021/03/06 09:33:43;;;;;;;12.37;5.87;;;4.00;51.40;;;2.94;45.52;99752.34;5118184;28;20495;-81
2021/03/06 09:36:12;;;;;;;11.55;5.50;;;4.10;50.90;;;2.98;45.01;99753.72;5121082;28;20416;-80
2021/03/06 09:38:48;;;;;;;8.25;5.47;;;4.10;50.20;;;3.02;44.96;99753.28;5123604;28;20659;-83
2021/03/06 09:41:19;;;;;;;7.55;5.72;;;4.20;50.30;;;3.00;45.24;99749.16;5122933;28;20471;-84
2021/03/06 09:43:51;;;;;;;10.20;5.80;;;4.20;50.40;;;3.04;45.67;99743.50;5122871;28;20777;-83
2021/03/06 09:46:27;;;;;;;7.40;5.20;;;4.20;50.60;;;3.21;45.50;99746.31;5120442;28;20420;-82
2021/03/06 09:48:56;;;;;;;7.78;5.18;;;4.30;50.60;;;3.26;44.65;99741.44;5120130;28;20419;-80
2021/03/06 09:51:25;;;;;;;10.03;5.83;;;4.40;49.70;;;3.42;44.59;99744.25;5120281;28;20811;-81
2021/03/06 09:53:57;;;;;;;8.23;5.50;;;4.50;49.90;;;3.50;42.45;99747.78;5121286;28;20424;-78
2021/03/06 09:56:25;;;;;;;9.77;5.05;;;4.60;48.40;;;3.60;43.25;99739.88;5121379;28;20420;-79
2021/03/06 09:59:03;;;;;;;10.27;5.80;;;4.70;48.30;;;3.76;41.88;99747.84;5121879;28;20405;-80
2021/03/06 10:01:32;;;;;;;9.55;5.35;;;4.90;47.10;;;3.65;43.49;99744.66;5122222;28;20419;-79
2021/03/06 10:04:08;;;;;;;9.65;5.45;;;4.80;48.50;;;3.71;43.66;99749.28;5121901;28;20412;-79
2021/03/06 10:06:36;;;;;;;13.10;5.28;;;4.90;48.80;;;3.89;43.56;99744.88;5122015;28;20397;-79
2021/03/06 10:09:06;;;;;;;9.75;5.32;;;5.00;48.90;;;3.89;43.07;99743.09;5121646;28;20404;-80
2021/03/06 10:11:37;;;;;;;11.30;5.25;;;5.00;48.30;;;3.80;43.10;99745.78;5121977;28;20400;-79
2021/03/06 10:14:07;;;;;;;8.23;5.45;;;5.00;48.20;;;3.87;42.32;99731.91;5121894;28;20488;-79
2021/03/06 10:16:45;;;;;;;8.32;5.75;;;5.00;47.90;;;4.07;41.18;99743.03;5101886;28;20693;-79
2021/03/06 10:19:13;;;;;;;8.68;5.65;;;5.20;47.20;;;4.01;39.57;99735.78;5121944;28;20473;-79
2021/03/06 10:21:43;;;;;;;11.30;5.10;;;5.20;45.00;;;3.88;39.06;99730.13;5120257;28;20502;-80
2021/03/06 10:24:11;;;;;;;7.40;5.20;;;5.00;44.00;;;3.88;39.46;99736.19;5069895;28;20404;-80
2021/03/06 10:26:39;;;;;;;8.57;5.53;;;5.00;44.40;;;3.93;41.37;99735.72;5119805;28;20404;-80
2021/03/06 10:29:22;;;;;;;9.13;5.38;;;5.10;46.20;;;4.06;41.91;99735.38;5121320;28;20414;-80
2021/03/06 10:31:56;;;;;;;7.95;5.10;;;5.20;47.30;;;4.07;41.70;99736.97;5120586;28;20410;-80
2021/03/06 10:34:26;;;;;;;14.27;6.88;;;5.20;46.90;;;4.26;41.87;99734.19;5134503;28;20423;-79
2021/03/06 10:37:15;;;;;;;8.00;5.53;;;5.30;47.30;;;4.35;41.10;99730.66;5134361;28;20516;-79
2021/03/06 10:40:09;;;;;;;6.60;4.97;;;5.50;46.40;;;4.50;40.97;99717.81;5113320;28;20422;-80